sensor_id;sensor_type;location;lat;lon;timestamp;temperature;humidity
47600;DHT22;33323;52.124;6.018;2023-05-14T00:02:11;13.20;99.90
47600;DHT22;33323;52.124;6.018;2023-05-14T00:04:38;13.10;99.90
47600;DHT22;33323;52.124;6.018;2023-05-14T00:07:05;13.10;99.90
47600;DHT22;33323;52.124;6.018;2023-05-14T00:09:32;13.00;99.90
47600;DHT22;33323;52.124;6.018;2023-05-14T00:12:00;13.00;99.90
47600;DHT22;33323;52.124;6.018;2023-05-14T00:14:27;13.00;99.90
47600;DHT22;33323;52.124;6.018;2023-05-14T00:16:54;12.90;99.90
47600;DHT22;33323;52.124;6.018;2023-05-14T00:19:21;13.00;99.90
47600;DHT22;33323;52.124;6.018;2023-05-14T00:21:49;13.00;99.90
47600;DHT22;33323;52.124;6.018;2023-05-14T00:24:16;12.90;99.90
47600;DHT22;33323;52.124;6.018;2023-05-14T00:26:43;12.70;99.90
47600;DHT22;33323;52.124;6.018;2023-05-14T00:29:10;12.70;99.90
47600;DHT22;33323;52.124;6.018;2023-05-14T00:31:37;12.70;99.90
47600;DHT22;33323;52.124;6.018;2023-05-14T00:34:04;12.80;99.90
47600;DHT22;33323;52.124;6.018;2023-05-14T00:36:31;12.70;99.90
47600;DHT22;33323;52.124;6.018;2023-05-14T00:38:58;12.80;99.90
47600;DHT22;33323;52.124;6.018;2023-05-14T00:41:25;12.70;99.90
47600;DHT22;33323;52.124;6.018;2023-05-14T00:43:53;12.70;99.90
47600;DHT22;33323;52.124;6.018;2023-05-14T00:46:20;12.70;99.90
47600;DHT22;33323;52.124;6.018;2023-05-14T00:48:47;12.70;99.90
47600;DHT22;33323;52.124;6.018;2023-05-14T00:51:15;12.80;99.90
47600;DHT22;33323;52.124;6.018;2023-05-14T00:53:44;12.80;99.90
47600;DHT22;33323;52.124;6.018;2023-05-14T00:56:13;12.90;99.90
47600;DHT22;33323;52.124;6.018;2023-05-14T00:58:41;12.90;99.90
47600;DHT22;33323;52.124;6.018;2023-05-14T01:01:08;12.90;99.90
47600;DHT22;33323;52.124;6.018;2023-05-14T01:03:35;12.90;99.90
47600;DHT22;33323;52.124;6.018;2023-05-14T01:06:19;12.90;99.90
47600;DHT22;33323;52.124;6.018;2023-05-14T01:11:54;12.80;99.90
47600;DHT22;33323;52.124;6.018;2023-05-14T01:17:25;12.70;99.90
47600;DHT22;33323;52.124;6.018;2023-05-14T01:19:55;12.50;99.90
47600;DHT22;33323;52.124;6.018;2023-05-14T01:22:24;12.50;99.90
47600;DHT22;33323;52.124;6.018;2023-05-14T01:24:51;12.50;99.90
47600;DHT22;33323;52.124;6.018;2023-05-14T01:27:34;12.50;99.90
47600;DHT22;33323;52.124;6.018;2023-05-14T01:30:29;12.50;99.90
47600;DHT22;33323;52.124;6.018;2023-05-14T01:32:59;12.50;99.90
47600;DHT22;33323;52.124;6.018;2023-05-14T01:35:29;12.60;99.90
47600;DHT22;33323;52.124;6.018;2023-05-14T01:37:59;12.60;99.90
47600;DHT22;33323;52.124;6.018;2023-05-14T01:40:28;12.60;99.90
47600;DHT22;33323;52.124;6.018;2023-05-14T01:42:55;12.60;99.90
47600;DHT22;33323;52.124;6.018;2023-05-14T01:45:23;12.50;99.90
47600;DHT22;33323;52.124;6.018;2023-05-14T01:47:50;12.40;99.90
47600;DHT22;33323;52.124;6.018;2023-05-14T01:50:18;12.40;99.90
47600;DHT22;33323;52.124;6.018;2023-05-14T01:52:45;12.30;99.90
47600;DHT22;33323;52.124;6.018;2023-05-14T01:55:13;12.40;99.90
47600;DHT22;33323;52.124;6.018;2023-05-14T01:57:41;12.30;99.90
47600;DHT22;33323;52.124;6.018;2023-05-14T02:00:08;12.30;99.90
47600;DHT22;33323;52.124;6.018;2023-05-14T02:02:42;12.30;99.90
47600;DHT22;33323;52.124;6.018;2023-05-14T02:05:11;12.30;99.90
47600;DHT22;33323;52.124;6.018;2023-05-14T02:07:38;12.30;99.90
47600;DHT22;33323;52.124;6.018;2023-05-14T02:10:08;12.20;99.90
47600;DHT22;33323;52.124;6.018;2023-05-14T02:12:35;12.10;99.90
47600;DHT22;33323;52.124;6.018;2023-05-14T02:15:02;12.10;99.90
47600;DHT22;33323;52.124;6.018;2023-05-14T02:17:31;12.10;99.90
47600;DHT22;33323;52.124;6.018;2023-05-14T02:19:58;12.20;99.90
47600;DHT22;33323;52.124;6.018;2023-05-14T02:22:25;12.10;99.90
47600;DHT22;33323;52.124;6.018;2023-05-14T02:24:52;12.00;99.90
47600;DHT22;33323;52.124;6.018;2023-05-14T02:27:19;12.00;99.90
47600;DHT22;33323;52.124;6.018;2023-05-14T02:29:46;12.00;99.90
47600;DHT22;33323;52.124;6.018;2023-05-14T02:32:13;12.00;99.90
47600;DHT22;33323;52.124;6.018;2023-05-14T02:34:40;11.90;99.90
47600;DHT22;33323;52.124;6.018;2023-05-14T02:37:07;12.00;99.90
47600;DHT22;33323;52.124;6.018;2023-05-14T02:39:34;11.90;99.90
47600;DHT22;33323;52.124;6.018;2023-05-14T02:42:01;11.90;99.90
47600;DHT22;33323;52.124;6.018;2023-05-14T02:44:28;11.80;99.90
47600;DHT22;33323;52.124;6.018;2023-05-14T02:46:57;11.80;99.90
47600;DHT22;33323;52.124;6.018;2023-05-14T02:49:24;11.70;99.90
47600;DHT22;33323;52.124;6.018;2023-05-14T02:51:51;11.70;99.90
47600;DHT22;33323;52.124;6.018;2023-05-14T02:54:19;11.60;99.90
47600;DHT22;33323;52.124;6.018;2023-05-14T02:56:47;11.60;99.90
47600;DHT22;33323;52.124;6.018;2023-05-14T02:59:14;11.60;99.90
47600;DHT22;33323;52.124;6.018;2023-05-14T03:01:41;11.50;99.90
47600;DHT22;33323;52.124;6.018;2023-05-14T03:04:09;11.50;99.90
47600;DHT22;33323;52.124;6.018;2023-05-14T03:06:36;11.40;99.90
47600;DHT22;33323;52.124;6.018;2023-05-14T03:09:03;11.40;99.90
47600;DHT22;33323;52.124;6.018;2023-05-14T03:11:30;11.30;99.90
47600;DHT22;33323;52.124;6.018;2023-05-14T03:13:57;11.20;99.90
47600;DHT22;33323;52.124;6.018;2023-05-14T03:16:24;11.20;99.90
47600;DHT22;33323;52.124;6.018;2023-05-14T03:18:51;11.10;99.90
47600;DHT22;33323;52.124;6.018;2023-05-14T03:21:18;11.20;99.90
47600;DHT22;33323;52.124;6.018;2023-05-14T03:23:44;11.10;99.90
47600;DHT22;33323;52.124;6.018;2023-05-14T03:26:11;11.10;99.90
47600;DHT22;33323;52.124;6.018;2023-05-14T03:28:39;11.10;99.90
47600;DHT22;33323;52.124;6.018;2023-05-14T03:31:06;11.10;99.90
47600;DHT22;33323;52.124;6.018;2023-05-14T03:33:35;11.00;99.90
47600;DHT22;33323;52.124;6.018;2023-05-14T03:36:02;11.00;99.90
47600;DHT22;33323;52.124;6.018;2023-05-14T03:38:29;10.90;99.90
47600;DHT22;33323;52.124;6.018;2023-05-14T03:40:56;10.90;99.90
47600;DHT22;33323;52.124;6.018;2023-05-14T03:43:23;10.90;99.90
47600;DHT22;33323;52.124;6.018;2023-05-14T03:45:50;10.80;99.90
47600;DHT22;33323;52.124;6.018;2023-05-14T03:48:18;10.80;99.90
47600;DHT22;33323;52.124;6.018;2023-05-14T03:50:46;10.80;99.90
47600;DHT22;33323;52.124;6.018;2023-05-14T03:53:13;10.80;99.90
47600;DHT22;33323;52.124;6.018;2023-05-14T03:55:40;10.70;99.90
47600;DHT22;33323;52.124;6.018;2023-05-14T03:58:10;10.70;99.90
47600;DHT22;33323;52.124;6.018;2023-05-14T04:00:41;10.70;99.90
47600;DHT22;33323;52.124;6.018;2023-05-14T04:03:09;10.70;99.90
47600;DHT22;33323;52.124;6.018;2023-05-14T04:05:37;10.70;99.90
47600;DHT22;33323;52.124;6.018;2023-05-14T04:08:05;10.80;99.90
47600;DHT22;33323;52.124;6.018;2023-05-14T04:10:31;10.70;99.90
47600;DHT22;33323;52.124;6.018;2023-05-14T04:12:59;10.80;99.90
47600;DHT22;33323;52.124;6.018;2023-05-14T04:15:30;10.70;99.90
47600;DHT22;33323;52.124;6.018;2023-05-14T04:17:57;10.70;99.90
47600;DHT22;33323;52.124;6.018;2023-05-14T04:20:24;10.60;99.90
47600;DHT22;33323;52.124;6.018;2023-05-14T04:22:52;10.70;99.90
47600;DHT22;33323;52.124;6.018;2023-05-14T04:25:19;10.70;99.90
47600;DHT22;33323;52.124;6.018;2023-05-14T04:27:47;10.80;99.90
47600;DHT22;33323;52.124;6.018;2023-05-14T04:30:14;10.90;99.90
47600;DHT22;33323;52.124;6.018;2023-05-14T04:32:41;11.00;99.90
47600;DHT22;33323;52.124;6.018;2023-05-14T04:35:08;11.20;99.90
47600;DHT22;33323;52.124;6.018;2023-05-14T04:37:36;11.40;99.90
47600;DHT22;33323;52.124;6.018;2023-05-14T04:40:04;11.60;99.90
47600;DHT22;33323;52.124;6.018;2023-05-14T04:42:32;11.90;99.90
47600;DHT22;33323;52.124;6.018;2023-05-14T04:44:59;11.90;99.90
47600;DHT22;33323;52.124;6.018;2023-05-14T04:47:26;11.90;99.90
47600;DHT22;33323;52.124;6.018;2023-05-14T04:49:53;11.90;99.90
47600;DHT22;33323;52.124;6.018;2023-05-14T04:52:20;12.10;99.90
47600;DHT22;33323;52.124;6.018;2023-05-14T04:54:47;12.30;99.90
47600;DHT22;33323;52.124;6.018;2023-05-14T04:57:14;12.60;99.90
47600;DHT22;33323;52.124;6.018;2023-05-14T04:59:41;12.90;99.90
47600;DHT22;33323;52.124;6.018;2023-05-14T05:02:08;13.00;99.90
47600;DHT22;33323;52.124;6.018;2023-05-14T05:04:35;12.80;99.90
47600;DHT22;33323;52.124;6.018;2023-05-14T05:07:02;12.90;99.90
47600;DHT22;33323;52.124;6.018;2023-05-14T05:09:31;13.00;99.90
47600;DHT22;33323;52.124;6.018;2023-05-14T05:11:58;13.00;99.90
47600;DHT22;33323;52.124;6.018;2023-05-14T05:14:27;13.10;99.90
47600;DHT22;33323;52.124;6.018;2023-05-14T05:16:54;13.40;99.90
47600;DHT22;33323;52.124;6.018;2023-05-14T05:19:21;13.60;99.90
47600;DHT22;33323;52.124;6.018;2023-05-14T05:22:01;13.60;99.90
47600;DHT22;33323;52.124;6.018;2023-05-14T05:24:28;13.50;99.90
47600;DHT22;33323;52.124;6.018;2023-05-14T05:26:55;13.90;99.90
47600;DHT22;33323;52.124;6.018;2023-05-14T05:29:23;13.90;99.90
47600;DHT22;33323;52.124;6.018;2023-05-14T05:31:50;13.80;99.90
47600;DHT22;33323;52.124;6.018;2023-05-14T05:34:17;13.80;99.90
47600;DHT22;33323;52.124;6.018;2023-05-14T05:36:45;13.80;99.90
47600;DHT22;33323;52.124;6.018;2023-05-14T05:39:12;13.90;99.90
47600;DHT22;33323;52.124;6.018;2023-05-14T05:41:38;13.90;99.90
47600;DHT22;33323;52.124;6.018;2023-05-14T05:44:06;14.00;99.90
47600;DHT22;33323;52.124;6.018;2023-05-14T05:46:33;14.20;99.90
47600;DHT22;33323;52.124;6.018;2023-05-14T05:49:00;14.40;99.90
47600;DHT22;33323;52.124;6.018;2023-05-14T05:51:27;14.80;99.90
47600;DHT22;33323;52.124;6.018;2023-05-14T05:53:54;14.80;99.90
47600;DHT22;33323;52.124;6.018;2023-05-14T05:56:21;14.50;99.90
47600;DHT22;33323;52.124;6.018;2023-05-14T05:58:48;14.70;99.90
47600;DHT22;33323;52.124;6.018;2023-05-14T06:01:15;14.90;99.90
47600;DHT22;33323;52.124;6.018;2023-05-14T06:03:42;15.10;99.90
47600;DHT22;33323;52.124;6.018;2023-05-14T06:06:11;15.10;99.90
47600;DHT22;33323;52.124;6.018;2023-05-14T06:08:38;15.10;99.90
47600;DHT22;33323;52.124;6.018;2023-05-14T06:11:05;15.00;99.90
47600;DHT22;33323;52.124;6.018;2023-05-14T06:13:32;15.00;99.90
47600;DHT22;33323;52.124;6.018;2023-05-14T06:15:59;15.20;99.90
47600;DHT22;33323;52.124;6.018;2023-05-14T06:18:26;15.30;99.90
47600;DHT22;33323;52.124;6.018;2023-05-14T06:20:53;15.70;99.90
47600;DHT22;33323;52.124;6.018;2023-05-14T06:23:22;15.90;99.90
47600;DHT22;33323;52.124;6.018;2023-05-14T06:25:49;16.20;99.90
47600;DHT22;33323;52.124;6.018;2023-05-14T06:28:16;15.90;99.90
47600;DHT22;33323;52.124;6.018;2023-05-14T06:30:43;15.90;99.90
47600;DHT22;33323;52.124;6.018;2023-05-14T06:33:10;15.60;99.90
47600;DHT22;33323;52.124;6.018;2023-05-14T06:35:39;15.20;99.90
47600;DHT22;33323;52.124;6.018;2023-05-14T06:38:05;15.30;99.90
47600;DHT22;33323;52.124;6.018;2023-05-14T06:40:32;15.60;99.90
47600;DHT22;33323;52.124;6.018;2023-05-14T06:42:59;15.80;99.90
47600;DHT22;33323;52.124;6.018;2023-05-14T06:45:26;15.80;99.90
47600;DHT22;33323;52.124;6.018;2023-05-14T06:47:54;15.80;99.90
47600;DHT22;33323;52.124;6.018;2023-05-14T06:50:21;16.10;99.90
47600;DHT22;33323;52.124;6.018;2023-05-14T06:52:48;16.60;99.90
47600;DHT22;33323;52.124;6.018;2023-05-14T06:55:15;16.70;99.90
47600;DHT22;33323;52.124;6.018;2023-05-14T06:57:42;16.80;99.90
47600;DHT22;33323;52.124;6.018;2023-05-14T07:00:10;17.30;99.90
47600;DHT22;33323;52.124;6.018;2023-05-14T07:02:38;17.50;99.90
47600;DHT22;33323;52.124;6.018;2023-05-14T07:05:05;17.20;99.90
47600;DHT22;33323;52.124;6.018;2023-05-14T07:07:34;16.90;99.90
47600;DHT22;33323;52.124;6.018;2023-05-14T07:10:01;16.50;99.90
47600;DHT22;33323;52.124;6.018;2023-05-14T07:12:28;16.60;99.90
47600;DHT22;33323;52.124;6.018;2023-05-14T07:14:55;16.60;99.90
47600;DHT22;33323;52.124;6.018;2023-05-14T07:17:23;16.70;99.90
47600;DHT22;33323;52.124;6.018;2023-05-14T07:19:50;17.00;99.90
47600;DHT22;33323;52.124;6.018;2023-05-14T07:22:17;17.20;99.90
47600;DHT22;33323;52.124;6.018;2023-05-14T07:24:44;17.30;99.90
47600;DHT22;33323;52.124;6.018;2023-05-14T07:27:11;17.70;99.90
47600;DHT22;33323;52.124;6.018;2023-05-14T07:29:38;18.00;99.90
47600;DHT22;33323;52.124;6.018;2023-05-14T07:32:05;18.20;99.90
47600;DHT22;33323;52.124;6.018;2023-05-14T07:34:32;18.10;99.90
47600;DHT22;33323;52.124;6.018;2023-05-14T07:36:59;17.90;99.90
47600;DHT22;33323;52.124;6.018;2023-05-14T07:39:26;18.00;99.90
47600;DHT22;33323;52.124;6.018;2023-05-14T07:41:53;18.20;99.90
47600;DHT22;33323;52.124;6.018;2023-05-14T07:44:23;18.30;99.90
47600;DHT22;33323;52.124;6.018;2023-05-14T07:46:49;18.30;99.90
47600;DHT22;33323;52.124;6.018;2023-05-14T07:49:16;18.70;99.90
47600;DHT22;33323;52.124;6.018;2023-05-14T07:51:43;19.20;99.90
47600;DHT22;33323;52.124;6.018;2023-05-14T07:54:10;19.60;99.90
47600;DHT22;33323;52.124;6.018;2023-05-14T07:56:37;20.30;99.90
47600;DHT22;33323;52.124;6.018;2023-05-14T07:59:04;20.00;99.90
47600;DHT22;33323;52.124;6.018;2023-05-14T08:01:32;20.10;99.90
47600;DHT22;33323;52.124;6.018;2023-05-14T08:03:59;20.40;99.90
47600;DHT22;33323;52.124;6.018;2023-05-14T08:06:26;21.50;99.90
47600;DHT22;33323;52.124;6.018;2023-05-14T08:08:55;21.90;99.90
47600;DHT22;33323;52.124;6.018;2023-05-14T08:11:22;21.90;99.90
47600;DHT22;33323;52.124;6.018;2023-05-14T08:13:49;21.20;99.90
47600;DHT22;33323;52.124;6.018;2023-05-14T08:16:16;20.80;99.90
47600;DHT22;33323;52.124;6.018;2023-05-14T08:18:43;20.80;99.90
47600;DHT22;33323;52.124;6.018;2023-05-14T08:21:10;21.60;99.90
47600;DHT22;33323;52.124;6.018;2023-05-14T08:23:37;21.30;99.90
47600;DHT22;33323;52.124;6.018;2023-05-14T08:26:04;20.90;99.90
47600;DHT22;33323;52.124;6.018;2023-05-14T08:28:31;21.20;99.90
47600;DHT22;33323;52.124;6.018;2023-05-14T08:30:58;20.80;99.90
47600;DHT22;33323;52.124;6.018;2023-05-14T08:33:25;20.90;99.90
47600;DHT22;33323;52.124;6.018;2023-05-14T08:35:52;21.00;99.90
47600;DHT22;33323;52.124;6.018;2023-05-14T08:38:20;21.00;99.90
47600;DHT22;33323;52.124;6.018;2023-05-14T08:40:56;20.80;99.90
47600;DHT22;33323;52.124;6.018;2023-05-14T08:43:26;20.70;99.90
47600;DHT22;33323;52.124;6.018;2023-05-14T08:45:58;20.60;99.90
47600;DHT22;33323;52.124;6.018;2023-05-14T08:48:31;20.90;99.90
47600;DHT22;33323;52.124;6.018;2023-05-14T08:50:59;20.70;99.90
47600;DHT22;33323;52.124;6.018;2023-05-14T08:53:27;20.80;99.90
47600;DHT22;33323;52.124;6.018;2023-05-14T08:55:54;20.90;99.90
47600;DHT22;33323;52.124;6.018;2023-05-14T08:58:24;21.10;99.90
47600;DHT22;33323;52.124;6.018;2023-05-14T09:00:53;20.90;99.90
47600;DHT22;33323;52.124;6.018;2023-05-14T09:03:20;21.00;99.90
47600;DHT22;33323;52.124;6.018;2023-05-14T09:05:50;21.40;99.90
47600;DHT22;33323;52.124;6.018;2023-05-14T09:08:18;21.60;99.90
47600;DHT22;33323;52.124;6.018;2023-05-14T09:10:45;21.30;99.90
47600;DHT22;33323;52.124;6.018;2023-05-14T09:13:13;21.20;99.90
47600;DHT22;33323;52.124;6.018;2023-05-14T09:15:40;21.10;99.90
47600;DHT22;33323;52.124;6.018;2023-05-14T09:18:07;21.70;99.90
47600;DHT22;33323;52.124;6.018;2023-05-14T09:20:34;21.80;99.90
47600;DHT22;33323;52.124;6.018;2023-05-14T09:23:01;21.80;99.90
47600;DHT22;33323;52.124;6.018;2023-05-14T09:25:32;22.00;99.90
47600;DHT22;33323;52.124;6.018;2023-05-14T09:27:59;21.90;99.90
47600;DHT22;33323;52.124;6.018;2023-05-14T09:30:28;21.60;99.90
47600;DHT22;33323;52.124;6.018;2023-05-14T09:32:56;21.80;99.90
47600;DHT22;33323;52.124;6.018;2023-05-14T09:35:23;22.10;99.90
47600;DHT22;33323;52.124;6.018;2023-05-14T09:37:52;22.20;99.90
47600;DHT22;33323;52.124;6.018;2023-05-14T09:40:21;21.90;99.90
47600;DHT22;33323;52.124;6.018;2023-05-14T09:42:50;21.80;99.90
47600;DHT22;33323;52.124;6.018;2023-05-14T09:45:17;21.70;99.90
47600;DHT22;33323;52.124;6.018;2023-05-14T09:47:44;21.90;99.90
47600;DHT22;33323;52.124;6.018;2023-05-14T09:50:12;21.90;99.90
47600;DHT22;33323;52.124;6.018;2023-05-14T09:52:39;22.00;99.90
47600;DHT22;33323;52.124;6.018;2023-05-14T09:55:06;21.70;99.90
47600;DHT22;33323;52.124;6.018;2023-05-14T09:57:34;22.10;99.90
47600;DHT22;33323;52.124;6.018;2023-05-14T10:00:01;22.60;99.90
47600;DHT22;33323;52.124;6.018;2023-05-14T10:02:34;22.70;99.90
47600;DHT22;33323;52.124;6.018;2023-05-14T10:05:04;22.50;99.90
47600;DHT22;33323;52.124;6.018;2023-05-14T10:07:38;22.30;99.90
47600;DHT22;33323;52.124;6.018;2023-05-14T10:10:10;22.10;99.90
47600;DHT22;33323;52.124;6.018;2023-05-14T10:12:39;22.20;99.90
47600;DHT22;33323;52.124;6.018;2023-05-14T10:15:15;22.10;99.90
47600;DHT22;33323;52.124;6.018;2023-05-14T10:17:51;21.70;99.90
47600;DHT22;33323;52.124;6.018;2023-05-14T10:20:22;22.10;99.90
47600;DHT22;33323;52.124;6.018;2023-05-14T10:22:51;22.40;99.90
47600;DHT22;33323;52.124;6.018;2023-05-14T10:25:18;22.40;99.90
47600;DHT22;33323;52.124;6.018;2023-05-14T10:27:45;22.80;99.90
47600;DHT22;33323;52.124;6.018;2023-05-14T10:30:12;22.80;99.90
47600;DHT22;33323;52.124;6.018;2023-05-14T10:32:39;22.70;99.90
47600;DHT22;33323;52.124;6.018;2023-05-14T10:35:19;22.70;99.90
47600;DHT22;33323;52.124;6.018;2023-05-14T10:37:50;22.70;99.90
47600;DHT22;33323;52.124;6.018;2023-05-14T10:40:17;22.50;99.90
47600;DHT22;33323;52.124;6.018;2023-05-14T10:42:45;22.50;99.90
47600;DHT22;33323;52.124;6.018;2023-05-14T10:45:14;22.80;99.90
47600;DHT22;33323;52.124;6.018;2023-05-14T10:47:43;22.40;99.90
47600;DHT22;33323;52.124;6.018;2023-05-14T10:50:13;22.40;99.90
47600;DHT22;33323;52.124;6.018;2023-05-14T10:52:42;22.60;99.90
47600;DHT22;33323;52.124;6.018;2023-05-14T10:55:14;22.40;99.90
47600;DHT22;33323;52.124;6.018;2023-05-14T10:57:43;22.30;99.90
47600;DHT22;33323;52.124;6.018;2023-05-14T11:00:12;22.40;99.90
47600;DHT22;33323;52.124;6.018;2023-05-14T11:02:41;22.50;99.90
47600;DHT22;33323;52.124;6.018;2023-05-14T11:05:19;22.40;99.90
47600;DHT22;33323;52.124;6.018;2023-05-14T11:07:49;22.40;99.90
47600;DHT22;33323;52.124;6.018;2023-05-14T11:10:19;22.30;99.90
47600;DHT22;33323;52.124;6.018;2023-05-14T11:12:49;22.50;99.90
47600;DHT22;33323;52.124;6.018;2023-05-14T11:15:20;22.70;99.90
47600;DHT22;33323;52.124;6.018;2023-05-14T11:17:48;22.50;99.90
47600;DHT22;33323;52.124;6.018;2023-05-14T11:20:17;22.60;99.90
47600;DHT22;33323;52.124;6.018;2023-05-14T11:22:46;22.50;99.90
47600;DHT22;33323;52.124;6.018;2023-05-14T11:25:14;22.40;99.90
47600;DHT22;33323;52.124;6.018;2023-05-14T11:27:43;22.60;99.90
47600;DHT22;33323;52.124;6.018;2023-05-14T11:30:16;22.50;99.90
47600;DHT22;33323;52.124;6.018;2023-05-14T11:32:45;22.60;99.90
47600;DHT22;33323;52.124;6.018;2023-05-14T11:35:13;22.70;99.90
47600;DHT22;33323;52.124;6.018;2023-05-14T11:37:41;22.80;99.90
47600;DHT22;33323;52.124;6.018;2023-05-14T11:40:14;23.00;99.90
47600;DHT22;33323;52.124;6.018;2023-05-14T11:42:44;23.00;99.90
47600;DHT22;33323;52.124;6.018;2023-05-14T11:45:12;23.40;99.90
47600;DHT22;33323;52.124;6.018;2023-05-14T11:47:40;23.60;99.90
47600;DHT22;33323;52.124;6.018;2023-05-14T11:50:08;23.60;99.90
47600;DHT22;33323;52.124;6.018;2023-05-14T11:52:39;23.70;99.90
47600;DHT22;33323;52.124;6.018;2023-05-14T11:55:13;23.70;99.90
47600;DHT22;33323;52.124;6.018;2023-05-14T11:57:40;23.70;99.90
47600;DHT22;33323;52.124;6.018;2023-05-14T12:00:08;23.80;99.90
47600;DHT22;33323;52.124;6.018;2023-05-14T12:02:39;23.60;99.90
47600;DHT22;33323;52.124;6.018;2023-05-14T12:05:07;23.40;99.90
47600;DHT22;33323;52.124;6.018;2023-05-14T12:07:35;23.10;99.90
47600;DHT22;33323;52.124;6.018;2023-05-14T12:10:02;23.00;99.90
47600;DHT22;33323;52.124;6.018;2023-05-14T12:12:35;23.10;99.90
47600;DHT22;33323;52.124;6.018;2023-05-14T12:15:11;23.10;99.90
47600;DHT22;33323;52.124;6.018;2023-05-14T12:17:39;23.30;99.90
47600;DHT22;33323;52.124;6.018;2023-05-14T12:20:10;23.60;99.90
47600;DHT22;33323;52.124;6.018;2023-05-14T12:22:39;23.60;99.90
47600;DHT22;33323;52.124;6.018;2023-05-14T12:25:11;23.50;99.90
47600;DHT22;33323;52.124;6.018;2023-05-14T12:27:40;23.50;99.90
47600;DHT22;33323;52.124;6.018;2023-05-14T12:30:07;23.30;99.90
47600;DHT22;33323;52.124;6.018;2023-05-14T12:32:38;23.20;99.90
47600;DHT22;33323;52.124;6.018;2023-05-14T12:35:07;23.10;99.90
47600;DHT22;33323;52.124;6.018;2023-05-14T12:37:35;23.10;99.90
47600;DHT22;33323;52.124;6.018;2023-05-14T12:40:03;23.20;99.90
47600;DHT22;33323;52.124;6.018;2023-05-14T12:42:35;23.40;99.90
47600;DHT22;33323;52.124;6.018;2023-05-14T12:45:02;23.40;99.90
47600;DHT22;33323;52.124;6.018;2023-05-14T12:47:33;23.70;99.90
47600;DHT22;33323;52.124;6.018;2023-05-14T12:50:00;24.00;99.90
47600;DHT22;33323;52.124;6.018;2023-05-14T12:52:27;24.20;99.90
47600;DHT22;33323;52.124;6.018;2023-05-14T12:55:05;24.00;99.90
47600;DHT22;33323;52.124;6.018;2023-05-14T12:57:33;23.80;99.90
47600;DHT22;33323;52.124;6.018;2023-05-14T13:00:01;24.10;99.90
47600;DHT22;33323;52.124;6.018;2023-05-14T13:02:47;24.10;99.90
47600;DHT22;33323;52.124;6.018;2023-05-14T13:05:14;24.10;99.90
47600;DHT22;33323;52.124;6.018;2023-05-14T13:07:41;24.90;99.90
47600;DHT22;33323;52.124;6.018;2023-05-14T13:10:08;25.50;99.90
47600;DHT22;33323;52.124;6.018;2023-05-14T13:12:36;24.70;99.90
47600;DHT22;33323;52.124;6.018;2023-05-14T13:15:03;24.30;99.90
47600;DHT22;33323;52.124;6.018;2023-05-14T13:17:30;24.30;99.90
47600;DHT22;33323;52.124;6.018;2023-05-14T13:19:57;24.00;99.90
47600;DHT22;33323;52.124;6.018;2023-05-14T13:22:24;23.80;99.90
47600;DHT22;33323;52.124;6.018;2023-05-14T13:24:51;23.90;99.90
47600;DHT22;33323;52.124;6.018;2023-05-14T13:27:18;24.00;99.90
47600;DHT22;33323;52.124;6.018;2023-05-14T13:29:45;23.90;99.90
47600;DHT22;33323;52.124;6.018;2023-05-14T13:32:12;23.80;99.90
47600;DHT22;33323;52.124;6.018;2023-05-14T13:34:39;23.30;99.90
47600;DHT22;33323;52.124;6.018;2023-05-14T13:37:06;23.20;99.90
47600;DHT22;33323;52.124;6.018;2023-05-14T13:39:33;23.20;99.90
47600;DHT22;33323;52.124;6.018;2023-05-14T13:42:00;23.20;99.90
47600;DHT22;33323;52.124;6.018;2023-05-14T13:44:27;23.10;99.90
47600;DHT22;33323;52.124;6.018;2023-05-14T13:46:55;23.00;99.90
47600;DHT22;33323;52.124;6.018;2023-05-14T13:49:22;23.10;99.90
47600;DHT22;33323;52.124;6.018;2023-05-14T13:51:49;23.00;99.90
47600;DHT22;33323;52.124;6.018;2023-05-14T13:54:16;22.90;99.90
47600;DHT22;33323;52.124;6.018;2023-05-14T13:56:43;22.80;99.90
47600;DHT22;33323;52.124;6.018;2023-05-14T13:59:10;22.80;99.90
47600;DHT22;33323;52.124;6.018;2023-05-14T14:01:37;22.90;99.90
47600;DHT22;33323;52.124;6.018;2023-05-14T14:04:04;22.80;99.90
47600;DHT22;33323;52.124;6.018;2023-05-14T14:06:31;22.80;99.90
47600;DHT22;33323;52.124;6.018;2023-05-14T14:08:58;22.70;99.90
47600;DHT22;33323;52.124;6.018;2023-05-14T14:11:26;22.80;99.90
47600;DHT22;33323;52.124;6.018;2023-05-14T14:13:53;22.90;99.90
47600;DHT22;33323;52.124;6.018;2023-05-14T14:16:20;23.10;99.90
47600;DHT22;33323;52.124;6.018;2023-05-14T14:18:47;23.40;99.90
47600;DHT22;33323;52.124;6.018;2023-05-14T14:21:14;23.70;99.90
47600;DHT22;33323;52.124;6.018;2023-05-14T14:23:47;23.90;99.90
47600;DHT22;33323;52.124;6.018;2023-05-14T14:26:14;23.70;99.90
47600;DHT22;33323;52.124;6.018;2023-05-14T14:28:41;23.70;99.90
47600;DHT22;33323;52.124;6.018;2023-05-14T14:31:09;23.60;99.90
47600;DHT22;33323;52.124;6.018;2023-05-14T14:33:36;23.30;99.90
47600;DHT22;33323;52.124;6.018;2023-05-14T14:36:04;23.10;99.90
47600;DHT22;33323;52.124;6.018;2023-05-14T14:38:31;22.80;99.90
47600;DHT22;33323;52.124;6.018;2023-05-14T14:40:58;22.60;99.90
47600;DHT22;33323;52.124;6.018;2023-05-14T14:43:25;22.60;99.90
47600;DHT22;33323;52.124;6.018;2023-05-14T14:45:52;22.50;99.90
47600;DHT22;33323;52.124;6.018;2023-05-14T14:48:32;22.40;99.90
47600;DHT22;33323;52.124;6.018;2023-05-14T14:51:03;22.40;99.90
47600;DHT22;33323;52.124;6.018;2023-05-14T14:53:32;22.40;99.90
47600;DHT22;33323;52.124;6.018;2023-05-14T14:56:00;22.60;99.90
47600;DHT22;33323;52.124;6.018;2023-05-14T14:58:27;22.80;99.90
47600;DHT22;33323;52.124;6.018;2023-05-14T15:00:56;22.70;99.90
47600;DHT22;33323;52.124;6.018;2023-05-14T15:03:24;22.50;99.90
47600;DHT22;33323;52.124;6.018;2023-05-14T15:05:51;22.50;99.90
47600;DHT22;33323;52.124;6.018;2023-05-14T15:08:23;22.60;99.90
47600;DHT22;33323;52.124;6.018;2023-05-14T15:10:52;22.60;99.90
47600;DHT22;33323;52.124;6.018;2023-05-14T15:13:20;22.60;99.90
47600;DHT22;33323;52.124;6.018;2023-05-14T15:15:49;22.50;99.90
47600;DHT22;33323;52.124;6.018;2023-05-14T15:18:16;22.20;99.90
47600;DHT22;33323;52.124;6.018;2023-05-14T15:20:43;22.20;99.90
47600;DHT22;33323;52.124;6.018;2023-05-14T15:23:10;22.20;99.90
47600;DHT22;33323;52.124;6.018;2023-05-14T15:25:37;22.40;99.90
47600;DHT22;33323;52.124;6.018;2023-05-14T15:28:05;22.30;99.90
47600;DHT22;33323;52.124;6.018;2023-05-14T15:30:33;22.40;99.90
47600;DHT22;33323;52.124;6.018;2023-05-14T15:33:00;22.30;99.90
47600;DHT22;33323;52.124;6.018;2023-05-14T15:35:27;22.10;99.90
47600;DHT22;33323;52.124;6.018;2023-05-14T15:37:54;22.20;99.90
47600;DHT22;33323;52.124;6.018;2023-05-14T15:40:26;22.30;99.90
47600;DHT22;33323;52.124;6.018;2023-05-14T15:42:53;22.40;99.90